TAF Text Data
IDs:
Format:
Raw Decoded Include METAR

Data at: 1411 UTC 16 Aug 2022

KSLC 161120Z 1612/1718 15005KT P6SM FEW200
  FM161800 33008KT P6SM SCT200
  FM170400 16005KT P6SM FEW120 FEW200
  FM171700 33009KT P6SM FEW120